Time;durP1;ratioP1;P1;durP2;ratioP2;P2;SDS_P1;SDS_P2;PMS_P1;PMS_P2;Temp;Humidity;BMP_temperature;BMP_pressure;BME280_temperature;BME280_humidity;BME280_pressure;Samples;Min_cycle;Max_cycle;Signal;HPM_P1;HPM_P2
2023/04/22 00:00:21;;;;;;;3.90;2.30;;;20.50;62.60;;;;;;4926238;28;90249;-92
2023/04/22 00:02:47;;;;;;;2.15;1.92;;;20.50;62.80;;;;;;4927370;28;90662;-93
2023/04/22 00:05:13;;;;;;;4.88;2.42;;;20.50;62.80;;;;;;4926650;28;86996;-92
2023/04/22 00:07:41;;;;;;;2.60;2.22;;;20.50;62.80;;;;;;4927387;28;89157;-92
2023/04/22 00:10:11;;;;;;;3.45;2.30;;;20.50;62.70;;;;;;4926592;28;90159;-92
2023/04/22 00:12:37;;;;;;;;;;;20.50;62.90;;;;;;4942737;28;90095;-93
2023/04/22 00:15:03;;;;;;;2.90;2.25;;;20.50;62.90;;;;;;4928750;28;88436;-92
2023/04/22 00:17:29;;;;;;;2.63;2.20;;;20.50;62.80;;;;;;4926633;28;89313;-92
2023/04/22 00:19:55;;;;;;;3.28;2.03;;;20.50;62.80;;;;;;4926363;28;89362;-92
2023/04/22 00:22:20;;;;;;;2.13;1.92;;;20.50;62.80;;;;;;4942247;28;90239;-92
2023/04/22 00:24:46;;;;;;;3.20;1.90;;;20.40;62.50;;;;;;4926385;28;87172;-92
2023/04/22 00:27:12;;;;;;;3.38;2.20;;;20.40;62.60;;;;;;4917844;28;89059;-92
2023/04/22 00:29:38;;;;;;;2.92;2.10;;;20.40;62.70;;;;;;4926637;28;90321;-92
2023/04/22 00:32:04;;;;;;;2.50;2.03;;;20.40;62.70;;;;;;4926436;28;89873;-93
2023/04/22 00:34:29;;;;;;;2.80;2.08;;;20.40;62.80;;;;;;4895337;28;87051;-93
2023/04/22 00:36:56;;;;;;;3.08;1.88;;;20.40;62.70;;;;;;4891735;28;88217;-93
2023/04/22 00:39:21;;;;;;;3.17;2.35;;;20.40;62.70;;;;;;4893235;28;92420;-92
2023/04/22 00:41:48;;;;;;;2.53;2.00;;;20.40;62.50;;;;;;4892412;28;92094;-93
2023/04/22 00:44:13;;;;;;;3.13;2.20;;;20.30;62.60;;;;;;4893094;28;88954;-91
2023/04/22 00:46:39;;;;;;;2.75;2.28;;;20.40;62.50;;;;;;4890173;28;90210;-92
2023/04/22 00:49:06;;;;;;;3.00;2.08;;;20.40;62.70;;;;;;4895358;28;91065;-92
2023/04/22 00:51:32;;;;;;;2.53;1.95;;;20.40;62.50;;;;;;4885576;28;88981;-92
2023/04/22 00:54:00;;;;;;;4.68;2.63;;;20.40;62.60;;;;;;4885109;28;87138;-93
2023/04/22 00:56:27;;;;;;;2.40;2.03;;;20.40;62.60;;;;;;4877321;28;89567;-93
2023/04/22 00:58:54;;;;;;;2.92;1.92;;;20.40;62.60;;;;;;4884042;28;90513;-92
2023/04/22 01:01:20;;;;;;;4.65;2.28;;;20.30;62.40;;;;;;4893362;28;90202;-92
2023/04/22 01:03:48;;;;;;;4.03;2.20;;;20.30;62.50;;;;;;4885160;28;88035;-92
2023/04/22 01:06:17;;;;;;;2.50;2.30;;;20.30;62.60;;;;;;4928697;28;90108;-92
2023/04/22 01:08:43;;;;;;;2.97;1.85;;;20.30;62.70;;;;;;4926336;28;90286;-92
2023/04/22 01:11:09;;;;;;;3.63;1.90;;;20.30;62.60;;;;;;4925820;28;90035;-92
2023/04/22 01:13:37;;;;;;;5.75;2.95;;;20.30;62.70;;;;;;4925986;28;87052;-92
2023/04/22 01:16:04;;;;;;;2.00;1.80;;;20.30;62.70;;;;;;4944847;28;89695;-93
2023/04/22 01:18:32;;;;;;;3.05;2.20;;;20.30;62.60;;;;;;4929383;28;90230;-91
2023/04/22 01:20:57;;;;;;;3.25;1.88;;;20.30;62.70;;;;;;4930551;28;90780;-93
2023/04/22 01:23:23;;;;;;;2.60;2.05;;;20.20;62.50;;;;;;4929136;28;87193;-93
2023/04/22 01:25:58;;;;;;;2.70;2.05;;;20.20;62.70;;;;;;4929559;28;90108;-91
2023/04/22 01:28:24;;;;;;;2.85;1.85;;;20.20;62.60;;;;;;4935080;28;90719;-92
2023/04/22 01:30:51;;;;;;;3.95;2.40;;;20.20;62.50;;;;;;4927983;28;91564;-93
2023/04/22 01:33:17;;;;;;;3.40;2.15;;;20.20;62.70;;;;;;4928604;28;87843;-92
2023/04/22 01:35:43;;;;;;;2.58;2.03;;;20.20;62.60;;;;;;4929784;28;88273;-93
2023/04/22 01:38:11;;;;;;;3.30;2.15;;;20.20;62.70;;;;;;4929561;28;90164;-93
2023/04/22 01:40:38;;;;;;;2.40;2.00;;;20.20;62.70;;;;;;4928893;28;90968;-92
2023/04/22 01:43:04;;;;;;;2.60;2.17;;;20.20;62.80;;;;;;4904508;28;95055;-91
2023/04/22 01:45:30;;;;;;;3.08;2.05;;;20.20;62.70;;;;;;4898160;28;88625;-92
2023/04/22 01:47:56;;;;;;;2.78;2.00;;;20.20;62.80;;;;;;4889583;28;90143;-93
2023/04/22 01:50:22;;;;;;;3.05;2.00;;;20.20;62.70;;;;;;4888795;28;89990;-93
2023/04/22 01:52:48;;;;;;;2.28;2.00;;;20.20;62.80;;;;;;4887829;28;88427;-94
2023/04/22 01:55:14;;;;;;;2.60;2.08;;;20.10;62.70;;;;;;4886578;28;89458;-91
2023/04/22 01:57:40;;;;;;;3.00;1.85;;;20.10;62.70;;;;;;4894782;28;90292;-92
2023/04/22 02:00:09;;;;;;;3.55;2.00;;;20.20;62.90;;;;;;4903831;28;89750;-94
2023/04/22 02:02:35;;;;;;;3.55;2.30;;;20.10;62.80;;;;;;4885864;28;87468;-92
2023/04/22 02:05:01;;;;;;;1.80;1.70;;;20.10;62.70;;;;;;4897370;28;88105;-92
2023/04/22 02:07:26;;;;;;;2.05;1.67;;;20.10;62.70;;;;;;4888418;28;91301;-92
2023/04/22 02:09:52;;;;;;;2.78;2.15;;;20.10;62.80;;;;;;4896037;28;90124;-92
2023/04/22 02:12:18;;;;;;;2.33;2.05;;;20.10;62.90;;;;;;4898095;28;87209;-92
2023/04/22 02:14:53;;;;;;;3.92;2.03;;;20.10;62.80;;;;;;4905537;28;89838;-91
2023/04/22 02:17:19;;;;;;;2.30;1.92;;;20.10;62.80;;;;;;4908781;28;90929;-92
2023/04/22 02:19:44;;;;;;;2.53;1.80;;;20.10;62.80;;;;;;4908710;28;90916;-92
2023/04/22 02:22:10;;;;;;;3.75;2.30;;;20.10;62.70;;;;;;4908769;28;87058;-92
2023/04/22 02:24:36;;;;;;;2.40;1.80;;;20.10;62.90;;;;;;4908767;28;88944;-93
2023/04/22 02:27:01;;;;;;;2.75;2.03;;;20.10;62.90;;;;;;4908730;28;90803;-92
2023/04/22 02:29:27;;;;;;;2.15;1.80;;;20.10;63.10;;;;;;4908749;28;90951;-92
2023/04/22 02:31:53;;;;;;;3.13;1.98;;;20.10;63.10;;;;;;4908797;28;87516;-92
2023/04/22 02:34:19;;;;;;;2.53;2.13;;;20.10;63.00;;;;;;4909342;28;90461;-93
2023/04/22 02:36:44;;;;;;;3.13;1.98;;;20.10;63.10;;;;;;4884827;28;90392;-92
2023/04/22 02:39:10;;;;;;;2.97;1.80;;;20.00;63.00;;;;;;4870183;28;89997;-92
2023/04/22 02:41:36;;;;;;;4.88;2.08;;;20.00;62.80;;;;;;4868795;28;87974;-92
2023/04/22 02:44:01;;;;;;;2.17;1.73;;;20.00;62.80;;;;;;4869556;28;88379;-93
2023/04/22 02:46:27;;;;;;;2.30;1.77;;;20.00;62.80;;;;;;4869320;28;90261;-92
2023/04/22 02:48:53;;;;;;;2.65;2.15;;;20.00;62.90;;;;;;4869211;28;89083;-92
2023/04/22 02:51:20;;;;;;;3.15;2.10;;;20.00;63.00;;;;;;4870245;28;87148;-93
2023/04/22 02:53:46;;;;;;;2.75;2.00;;;20.00;62.80;;;;;;4870016;28;89447;-92
2023/04/22 02:56:11;;;;;;;2.65;1.88;;;20.00;62.80;;;;;;4868905;28;91425;-92
2023/04/22 02:58:37;;;;;;;1.80;1.65;;;20.00;62.90;;;;;;4870229;28;90223;-93
2023/04/22 03:01:03;;;;;;;2.08;1.83;;;20.00;62.80;;;;;;4869081;28;86889;-93
2023/04/22 03:03:28;;;;;;;3.05;2.00;;;20.00;62.80;;;;;;4868797;28;91203;-92
2023/04/22 03:05:54;;;;;;;4.30;1.88;;;20.00;63.40;;;;;;4885011;28;91285;-92
2023/04/22 03:08:21;;;;;;;2.17;1.52;;;20.00;62.80;;;;;;4897424;28;90973;-92
2023/04/22 03:10:47;;;;;;;1.92;1.73;;;20.00;62.80;;;;;;4908374;28;86938;-91
2023/04/22 03:13:13;;;;;;;2.38;1.77;;;19.90;62.80;;;;;;4925932;28;90154;-91
2023/04/22 03:15:40;;;;;;;2.33;1.60;;;19.90;62.80;;;;;;4928282;28;90064;-92
2023/04/22 03:18:06;;;;;;;2.53;1.98;;;19.90;62.90;;;;;;4928278;28;91370;-91
2023/04/22 03:20:32;;;;;;;2.00;1.77;;;19.90;62.90;;;;;;4911595;28;87698;-91
2023/04/22 03:22:58;;;;;;;2.83;1.85;;;19.90;62.70;;;;;;4927754;28;89341;-91
2023/04/22 03:25:23;;;;;;;1.83;1.63;;;19.90;62.90;;;;;;4942957;28;91383;-91
2023/04/22 03:27:49;;;;;;;1.73;1.63;;;19.90;62.90;;;;;;4943675;28;91061;-91
2023/04/22 03:30:17;;;;;;;2.40;1.63;;;19.90;62.90;;;;;;4943328;28;88349;-92
2023/04/22 03:32:43;;;;;;;2.97;1.80;;;19.90;62.90;;;;;;4927914;28;89901;-92
2023/04/22 03:35:09;;;;;;;1.70;1.50;;;19.90;63.10;;;;;;4943486;28;89137;-93
2023/04/22 03:37:35;;;;;;;2.30;2.10;;;19.90;63.20;;;;;;4926203;28;91008;-91
2023/04/22 03:40:01;;;;;;;2.40;2.00;;;19.90;63.00;;;;;;4935163;28;87446;-94
2023/04/22 03:42:26;;;;;;;1.90;1.30;;;19.90;62.60;;;;;;4934427;28;89616;-91
2023/04/22 03:44:52;;;;;;;3.03;2.03;;;19.90;62.70;;;;;;4944531;28;90064;-91
2023/04/22 03:47:18;;;;;;;2.85;1.67;;;19.90;62.70;;;;;;4943811;28;90166;-91
2023/04/22 03:49:43;;;;;;;3.38;1.77;;;19.90;62.60;;;;;;4921759;28;87684;-92
2023/04/22 03:52:09;;;;;;;2.65;1.83;;;19.90;62.60;;;;;;4898011;28;91087;-92
2023/04/22 03:54:35;;;;;;;1.60;1.40;;;19.90;62.50;;;;;;4905840;28;90195;-93
2023/04/22 03:57:04;;;;;;;2.58;1.75;;;19.80;62.60;;;;;;4907007;28;90996;-93
2023/04/22 03:59:30;;;;;;;1.93;1.70;;;19.80;62.70;;;;;;4906019;28;87795;-92
2023/04/22 04:01:55;;;;;;;2.72;1.38;;;19.80;62.80;;;;;;4906692;28;89638;-91
2023/04/22 04:04:22;;;;;;;1.83;1.58;;;19.80;62.80;;;;;;4906227;28;89260;-92
2023/04/22 04:06:48;;;;;;;3.20;2.05;;;19.80;62.60;;;;;;4905812;28;91038;-93
2023/04/22 04:09:14;;;;;;;2.08;1.60;;;19.80;62.80;;;;;;4898462;28;87070;-92
2023/04/22 04:11:40;;;;;;;3.50;1.75;;;19.80;62.80;;;;;;4907530;28;89198;-92
2023/04/22 04:14:06;;;;;;;2.10;1.60;;;19.80;62.70;;;;;;4906027;28;91467;-93
2023/04/22 04:16:32;;;;;;;2.60;1.70;;;19.80;62.90;;;;;;4905630;28;89640;-93
2023/04/22 04:18:58;;;;;;;2.20;1.63;;;19.80;62.70;;;;;;4904296;28;88188;-92
2023/04/22 04:21:25;;;;;;;2.30;1.73;;;19.80;62.70;;;;;;4918014;28;88217;-92
2023/04/22 04:23:51;;;;;;;2.22;1.70;;;19.80;62.70;;;;;;4942964;28;91556;-93
2023/04/22 04:26:17;;;;;;;2.45;1.73;;;19.70;62.60;;;;;;4926107;28;90020;-93
2023/04/22 04:28:42;;;;;;;2.45;1.60;;;19.80;62.50;;;;;;4932144;28;87546;-93
2023/04/22 04:31:08;;;;;;;1.92;1.70;;;19.80;62.50;;;;;;4942237;28;90463;-92
2023/04/22 04:33:35;;;;;;;1.92;1.58;;;19.80;62.80;;;;;;4942436;28;91117;-93
2023/04/22 04:36:01;;;;;;;2.20;1.70;;;19.70;62.60;;;;;;4944041;28;88927;-92
2023/04/22 04:38:27;;;;;;;1.85;1.52;;;19.80;62.90;;;;;;4942201;28;87222;-93
2023/04/22 04:40:53;;;;;;;2.17;1.80;;;19.70;62.70;;;;;;4924773;28;88634;-93
2023/04/22 04:43:20;;;;;;;2.22;1.90;;;19.70;62.70;;;;;;4942901;28;91246;-93
2023/04/22 04:45:45;;;;;;;2.55;1.85;;;19.80;62.90;;;;;;4942344;28;91071;-92
2023/04/22 04:48:13;;;;;;;1.60;1.50;;;19.70;62.80;;;;;;4926868;28;87244;-92
2023/04/22 04:50:41;;;;;;;2.03;1.70;;;19.70;62.70;;;;;;4934957;28;93145;-93
2023/04/22 04:53:07;;;;;;;2.03;1.58;;;19.70;62.80;;;;;;4925104;28;91047;-93
2023/04/22 04:55:33;;;;;;;1.63;1.40;;;19.70;62.70;;;;;;4926069;28;91411;-94
2023/04/22 04:57:58;;;;;;;2.13;1.70;;;19.70;62.60;;;;;;4942250;28;88300;-94
2023/04/22 05:00:26;;;;;;;2.80;1.80;;;19.70;62.70;;;;;;4942560;28;90205;-93
2023/04/22 05:02:52;;;;;;;1.70;1.40;;;19.70;62.70;;;;;;4926077;28;91073;-94
2023/04/22 05:05:18;;;;;;;1.85;1.52;;;19.70;62.70;;;;;;4925999;28;89450;-91
2023/04/22 05:07:44;;;;;;;1.77;1.50;;;19.70;62.60;;;;;;4941712;28;88448;-95
2023/04/22 05:10:10;;;;;;;2.58;1.48;;;19.70;62.80;;;;;;4933121;28;89124;-91
2023/04/22 05:12:36;;;;;;;4.15;1.83;;;19.80;62.30;;;;;;4914232;28;91308;-94
2023/04/22 05:15:02;;;;;;;3.60;1.63;;;19.80;62.10;;;;;;4917465;28;90699;-93
2023/04/22 05:17:40;;;;;;;2.97;1.50;;;19.90;62.20;;;;;;4926942;28;87075;-92
2023/04/22 05:20:07;;;;;;;11.80;3.78;;;19.90;61.90;;;;;;4925081;28;88256;-95
2023/04/22 05:22:34;;;;;;;11.30;4.88;;;19.90;62.20;;;;;;4942449;28;89047;-94
2023/04/22 05:25:00;;;;;;;10.27;3.22;;;20.00;61.40;;;;;;4926634;28;91045;-93
2023/04/22 05:27:29;;;;;;;12.02;4.93;;;20.00;61.00;;;;;;4917537;28;87101;-92
2023/04/22 05:29:55;;;;;;;11.85;4.65;;;20.10;61.00;;;;;;4926231;28;88599;-92
2023/04/22 05:32:21;;;;;;;11.45;4.18;;;20.20;60.70;;;;;;4941947;28;91232;-91
2023/04/22 05:34:47;;;;;;;15.23;3.92;;;20.30;60.60;;;;;;4941303;28;91765;-92
2023/04/22 05:37:12;;;;;;;15.30;4.88;;;20.40;60.40;;;;;;4941502;28;87100;-92
2023/04/22 05:39:39;;;;;;;14.10;4.80;;;20.50;60.50;;;;;;4940824;28;89407;-93
2023/04/22 05:42:05;;;;;;;14.52;4.40;;;20.60;59.30;;;;;;4942417;28;90011;-92
2023/04/22 05:44:31;;;;;;;16.92;4.57;;;20.60;59.40;;;;;;4924567;28;90076;-92
2023/04/22 05:46:56;;;;;;;14.70;4.72;;;20.70;59.90;;;;;;4941563;28;86952;-92
2023/04/22 05:49:22;;;;;;;12.85;4.55;;;20.70;59.80;;;;;;4941005;28;88723;-93
2023/04/22 05:51:48;;;;;;;14.25;4.85;;;20.60;59.90;;;;;;4941280;28;91688;-92
2023/04/22 05:54:14;;;;;;;15.35;4.47;;;20.60;59.90;;;;;;4924070;28;90223;-92
2023/04/22 05:56:40;;;;;;;10.85;4.55;;;20.60;60.10;;;;;;4941504;28;88454;-91
2023/04/22 05:59:06;;;;;;;15.77;4.80;;;20.60;60.00;;;;;;4931930;28;89125;-91
2023/04/22 06:01:32;;;;;;;13.27;4.90;;;20.70;60.20;;;;;;4942329;28;90408;-92
2023/04/22 06:03:57;;;;;;;10.68;4.47;;;20.70;60.20;;;;;;4913867;28;90390;-93
2023/04/22 06:06:23;;;;;;;14.43;4.60;;;20.70;59.90;;;;;;4906245;28;87558;-92
2023/04/22 06:09:09;;;;;;;10.82;3.90;;;20.70;59.90;;;;;;4893757;28;87446;-92
2023/04/22 06:11:35;;;;;;;14.63;4.38;;;20.70;59.90;;;;;;4878748;28;91076;-93
2023/04/22 06:14:00;;;;;;;13.48;4.70;;;20.60;60.00;;;;;;4881056;28;89811;-92
2023/04/22 06:16:29;;;;;;;12.35;4.93;;;20.60;60.00;;;;;;4867046;28;87745;-94
2023/04/22 06:18:55;;;;;;;9.63;4.13;;;20.70;59.80;;;;;;4895672;28;89296;-94
2023/04/22 06:21:27;;;;;;;10.60;3.83;;;20.60;59.70;;;;;;4880066;28;91584;-93
2023/04/22 06:23:53;;;;;;;13.82;4.28;;;20.60;59.40;;;;;;4893501;28;92133;-93
2023/04/22 06:26:19;;;;;;;11.07;3.78;;;20.60;59.80;;;;;;4876933;28;87456;-92
2023/04/22 06:28:45;;;;;;;8.52;3.40;;;20.70;59.70;;;;;;4866917;28;90910;-93
2023/04/22 06:31:10;;;;;;;8.00;3.45;;;20.80;59.70;;;;;;4867193;28;91385;-88
2023/04/22 06:33:36;;;;;;;10.13;4.05;;;20.80;59.60;;;;;;4861569;28;90190;-91
2023/04/22 06:36:03;;;;;;;13.63;4.43;;;20.80;59.70;;;;;;4887555;28;86951;-90
2023/04/22 06:38:29;;;;;;;11.50;3.70;;;20.80;59.70;;;;;;4870189;28;89937;-89
2023/04/22 06:40:55;;;;;;;11.38;4.38;;;20.90;59.90;;;;;;4915633;28;90953;-92
2023/04/22 06:43:24;;;;;;;11.60;3.80;;;20.90;59.60;;;;;;4906689;28;91224;-95
2023/04/22 06:45:50;;;;;;;11.10;4.18;;;20.90;59.80;;;;;;4906642;28;88319;-91
2023/04/22 06:48:15;;;;;;;13.43;4.63;;;21.00;59.30;;;;;;4907140;28;89310;-92
2023/04/22 06:50:41;;;;;;;11.75;3.85;;;21.00;59.60;;;;;;4908565;28;91278;-92
2023/04/22 06:53:08;;;;;;;8.85;3.88;;;20.90;59.60;;;;;;4906637;28;90458;-92
2023/04/22 06:55:34;;;;;;;9.65;3.35;;;20.90;59.80;;;;;;4907861;28;87337;-92
2023/04/22 06:58:00;;;;;;;9.80;3.63;;;20.90;59.80;;;;;;4917114;28;89365;-90
2023/04/22 07:00:27;;;;;;;8.30;3.70;;;21.00;60.00;;;;;;4927201;28;91474;-92
2023/04/22 07:02:52;;;;;;;9.25;3.75;;;21.10;59.90;;;;;;4927147;28;89166;-93
2023/04/22 07:05:21;;;;;;;8.63;3.50;;;21.20;59.70;;;;;;4926761;28;86973;-88
2023/04/22 07:07:47;;;;;;;15.47;3.60;;;21.20;59.90;;;;;;4918121;28;88331;-88
2023/04/22 07:10:13;;;;;;;10.80;3.25;;;21.30;59.80;;;;;;4925434;28;90917;-87
2023/04/22 07:12:39;;;;;;;9.82;3.85;;;21.30;59.80;;;;;;4944111;28;87753;-88
2023/04/22 07:15:06;;;;;;;8.00;3.25;;;21.30;59.60;;;;;;4945190;28;87116;-90
2023/04/22 07:17:32;;;;;;;14.75;4.53;;;21.30;59.80;;;;;;4927873;28;91071;-93
2023/04/22 07:19:58;;;;;;;17.17;4.90;;;21.30;59.90;;;;;;4911592;28;89931;-89
2023/04/22 07:22:23;;;;;;;14.48;5.10;;;21.30;60.10;;;;;;4926267;28;91486;-90
2023/04/22 07:24:49;;;;;;;20.60;5.85;;;21.30;59.70;;;;;;4926873;28;87558;-89
2023/04/22 07:27:15;;;;;;;27.25;8.18;;;21.30;59.80;;;;;;4939147;28;86249;-87
2023/04/22 07:29:41;;;;;;;21.40;5.45;;;21.20;59.70;;;;;;4944705;28;87629;-91
2023/04/22 07:32:06;;;;;;;21.50;6.45;;;21.10;60.00;;;;;;4926341;28;90678;-91
2023/04/22 07:34:32;;;;;;;24.38;6.55;;;21.10;60.40;;;;;;4927145;28;88251;-90
2023/04/22 07:36:58;;;;;;;20.75;6.00;;;21.10;60.60;;;;;;4926878;28;89187;-92
2023/04/22 07:39:24;;;;;;;25.15;7.57;;;21.10;60.70;;;;;;4942786;28;91424;-92
2023/04/22 07:41:50;;;;;;;26.65;7.38;;;21.10;60.60;;;;;;4934616;28;91112;-91
2023/04/22 07:44:20;;;;;;;22.95;6.78;;;21.10;60.70;;;;;;4927165;28;86866;-91
2023/04/22 07:46:46;;;;;;;22.92;7.22;;;21.10;60.60;;;;;;4925793;28;90077;-90
2023/04/22 07:49:12;;;;;;;28.33;7.45;;;21.10;60.80;;;;;;4925387;28;90297;-91
2023/04/22 07:51:39;;;;;;;24.40;7.68;;;21.10;60.70;;;;;;4926276;28;89074;-91
2023/04/22 07:54:05;;;;;;;29.77;7.97;;;21.10;60.80;;;;;;4927576;28;87494;-90
2023/04/22 07:56:34;;;;;;;16.60;6.78;;;21.10;60.60;;;;;;4926593;28;90650;-92
2023/04/22 07:59:03;;;;;;;22.00;6.80;;;21.10;60.60;;;;;;4925583;28;91763;-91
2023/04/22 08:01:29;;;;;;;19.98;7.55;;;21.10;60.50;;;;;;4926545;28;89820;-91
2023/04/22 08:03:55;;;;;;;24.88;7.50;;;21.20;60.50;;;;;;4917882;28;87167;-91
2023/04/22 08:06:22;;;;;;;22.30;7.20;;;21.20;60.50;;;;;;4926071;28;90211;-92
2023/04/22 08:08:48;;;;;;;22.52;7.90;;;21.30;60.40;;;;;;4901946;28;89859;-91
2023/04/22 08:11:14;;;;;;;17.45;6.32;;;21.30;60.20;;;;;;4884904;28;91255;-91
2023/04/22 08:13:40;;;;;;;26.17;7.57;;;21.30;60.10;;;;;;4902760;28;87516;-90
2023/04/22 08:16:06;;;;;;;21.85;6.82;;;21.40;60.00;;;;;;4903275;28;90450;-91
2023/04/22 08:18:31;;;;;;;19.85;7.13;;;21.40;59.90;;;;;;4893598;28;90331;-90
2023/04/22 08:20:57;;;;;;;16.02;6.18;;;21.40;60.00;;;;;;4887963;28;90794;-90
2023/04/22 08:23:24;;;;;;;21.67;5.97;;;21.40;59.90;;;;;;4901544;28;87900;-91
2023/04/22 08:25:50;;;;;;;19.38;6.25;;;21.40;59.90;;;;;;4879398;28;90009;-91
2023/04/22 08:28:16;;;;;;;17.48;6.25;;;21.40;60.00;;;;;;4902377;28;90544;-90
2023/04/22 08:30:42;;;;;;;20.33;7.07;;;21.40;60.00;;;;;;4887104;28;89944;-90
2023/04/22 08:33:08;;;;;;;22.77;7.78;;;21.30;60.10;;;;;;4903150;28;87277;-90
2023/04/22 08:35:35;;;;;;;18.55;6.32;;;21.30;60.30;;;;;;4902486;28;90461;-90
2023/04/22 08:38:01;;;;;;;19.38;6.28;;;21.30;60.40;;;;;;4892092;28;91597;-90
2023/04/22 08:40:30;;;;;;;14.90;6.28;;;21.30;60.40;;;;;;4899364;28;90088;-91
2023/04/22 08:42:56;;;;;;;14.93;5.33;;;21.30;60.40;;;;;;4898969;28;87656;-91
2023/04/22 08:45:22;;;;;;;17.33;6.05;;;21.30;60.40;;;;;;4900934;28;88814;-91
2023/04/22 08:47:48;;;;;;;16.10;5.80;;;21.40;60.40;;;;;;4903351;28;90383;-91
2023/04/22 08:50:14;;;;;;;15.18;6.05;;;21.40;60.30;;;;;;4905389;28;89699;-91
2023/04/22 08:52:43;;;;;;;19.42;6.28;;;21.50;60.20;;;;;;4906767;28;86920;-89
2023/04/22 08:55:09;;;;;;;17.40;6.05;;;21.50;60.10;;;;;;4913872;28;89076;-91
2023/04/22 08:57:39;;;;;;;16.48;6.38;;;21.60;60.10;;;;;;4905702;28;91301;-90
2023/04/22 09:00:05;;;;;;;16.40;6.38;;;21.60;59.80;;;;;;4907471;28;91369;-92
2023/04/22 09:02:32;;;;;;;15.00;6.22;;;21.60;59.70;;;;;;4905138;28;87768;-90
2023/04/22 09:05:00;;;;;;;13.63;5.68;;;21.60;59.60;;;;;;4912723;28;89105;-90
2023/04/22 09:07:28;;;;;;;16.47;6.40;;;21.70;59.50;;;;;;4905858;28;89920;-91
2023/04/22 09:09:55;;;;;;;14.82;5.78;;;21.70;59.60;;;;;;4921673;28;91109;-91
2023/04/22 09:12:21;;;;;;;17.05;6.05;;;21.70;59.60;;;;;;4915748;28;88466;-90
2023/04/22 09:14:47;;;;;;;16.08;5.40;;;21.70;59.70;;;;;;4926099;28;88704;-91
2023/04/22 09:17:17;;;;;;;16.10;6.00;;;21.70;59.60;;;;;;4924702;28;91206;-91
2023/04/22 09:19:59;;;;;;;13.52;5.90;;;21.70;59.50;;;;;;4924841;28;90283;-90
2023/04/22 09:22:26;;;;;;;15.10;5.80;;;21.80;59.60;;;;;;4919894;28;90979;-90
2023/04/22 09:24:52;;;;;;;16.77;5.57;;;21.70;59.60;;;;;;4904408;28;89011;-90
2023/04/22 09:27:19;;;;;;;19.77;5.78;;;21.70;59.70;;;;;;4904020;28;89767;-91
2023/04/22 09:29:49;;;;;;;12.77;5.68;;;21.80;59.70;;;;;;4922373;28;90957;-91
2023/04/22 09:32:15;;;;;;;15.95;5.85;;;21.70;59.50;;;;;;4903898;28;87637;-91
2023/04/22 09:34:51;;;;;;;16.17;5.78;;;21.60;59.70;;;;;;4903809;28;89194;-92
2023/04/22 09:37:27;;;;;;;13.88;5.47;;;21.60;60.00;;;;;;4906747;28;91591;-87
2023/04/22 09:39:53;;;;;;;14.60;5.60;;;21.60;59.50;;;;;;4924314;28;91366;-92
2023/04/22 09:42:20;;;;;;;16.83;5.95;;;21.60;59.70;;;;;;4907666;28;86969;-91
2023/04/22 09:44:54;;;;;;;15.20;6.18;;;21.70;59.50;;;;;;4924405;28;90778;-89
2023/04/22 09:47:22;;;;;;;13.38;5.10;;;21.60;59.60;;;;;;4906620;28;90923;-90
2023/04/22 09:49:49;;;;;;;15.48;5.47;;;21.60;59.10;;;;;;4922408;28;87888;-91
2023/04/22 09:52:26;;;;;;;19.75;5.97;;;21.60;59.30;;;;;;4924390;28;86949;-88
2023/04/22 09:54:53;;;;;;;14.07;5.72;;;21.50;59.60;;;;;;4913671;28;88991;-87
2023/04/22 09:57:21;;;;;;;16.90;6.53;;;21.50;60.00;;;;;;4922334;28;88909;-88
2023/04/22 09:59:50;;;;;;;12.73;6.13;;;21.50;61.20;;;;;;4933320;28;88873;-90
2023/04/22 10:02:15;;;;;;;11.45;6.25;;;21.50;61.90;;;;;;4927798;28;88071;-89
2023/04/22 10:04:41;;;;;;;17.83;5.88;;;21.50;62.40;;;;;;4927389;28;90012;-89
2023/04/22 10:07:07;;;;;;;14.38;6.40;;;21.50;62.80;;;;;;4928200;28;91275;-89
2023/04/22 10:09:34;;;;;;;14.60;5.93;;;21.50;63.20;;;;;;4927434;28;89947;-89
2023/04/22 10:12:00;;;;;;;14.00;5.88;;;21.40;63.40;;;;;;4946072;28;87292;-89
2023/04/22 10:14:26;;;;;;;12.35;5.65;;;21.40;63.50;;;;;;4926653;28;89407;-90
2023/04/22 10:16:58;;;;;;;16.33;6.68;;;21.40;63.50;;;;;;4927338;28;90614;-88
2023/04/22 10:19:28;;;;;;;13.50;5.80;;;21.30;64.20;;;;;;4918663;28;89539;-89
2023/04/22 10:22:01;;;;;;;12.55;5.35;;;21.30;63.80;;;;;;4928638;28;86687;-92
2023/04/22 10:24:34;;;;;;;16.05;6.13;;;21.20;64.30;;;;;;4892972;28;88796;-91
2023/04/22 10:27:07;;;;;;;16.40;5.68;;;21.20;63.40;;;;;;4921863;28;91367;-92
2023/04/22 10:29:38;;;;;;;18.98;6.57;;;21.20;63.40;;;;;;4927152;28;90588;-93
2023/04/22 10:32:23;;;;;;;10.93;5.38;;;21.20;63.50;;;;;;4943825;28;87333;-91
2023/04/22 10:34:49;;;;;;;14.20;6.78;;;21.20;64.00;;;;;;4928131;28;89898;-91
2023/04/22 10:37:20;;;;;;;16.77;6.63;;;21.20;64.20;;;;;;4930484;28;91310;-93
2023/04/22 10:40:09;;;;;;;14.20;6.30;;;21.20;64.60;;;;;;4933620;28;90074;-94
2023/04/22 10:42:40;;;;;;;14.30;5.68;;;21.10;65.30;;;;;;4943299;28;87324;-92
2023/04/22 10:45:13;;;;;;;13.93;5.35;;;21.10;65.50;;;;;;4944905;28;90531;-93
2023/04/22 10:50:44;;;;;;;16.50;5.80;;;21.10;64.90;;;;;;5240536;23;87861;-94
2023/04/22 10:53:39;;;;;;;17.48;5.72;;;21.00;65.50;;;;;;5176557;23;89734;-93
2023/04/22 10:56:16;;;;;;;13.90;6.30;;;21.00;65.00;;;;;;4957060;28;89659;-94
2023/04/22 10:58:53;;;;;;;21.55;5.90;;;21.10;65.20;;;;;;4958008;28;88965;-93
2023/04/22 11:01:18;;;;;;;15.10;5.60;;;21.10;64.70;;;;;;4955114;28;89982;-93
2023/04/22 11:03:47;;;;;;;17.48;5.05;;;21.10;64.80;;;;;;4956437;28;87344;-95
2023/04/22 11:06:38;;;;;;;11.82;5.78;;;21.10;65.10;;;;;;4971387;28;90199;-92
2023/04/22 11:09:23;;;;;;;14.48;5.90;;;21.10;64.90;;;;;;5372814;23;91297;-94
2023/04/22 11:11:50;;;;;;;16.27;5.90;;;21.10;65.00;;;;;;4955316;28;89946;-95
2023/04/22 11:14:15;;;;;;;10.63;4.97;;;21.10;64.80;;;;;;4972448;28;87466;-93
2023/04/22 11:16:46;;;;;;;11.65;5.20;;;21.10;64.80;;;;;;4955037;28;88933;-92
2023/04/22 11:19:12;;;;;;;22.98;6.05;;;21.10;64.60;;;;;;4955834;28;92141;-91
2023/04/22 11:21:37;;;;;;;12.32;5.40;;;21.10;64.80;;;;;;4956759;28;91269;-94
2023/04/22 11:24:05;;;;;;;13.48;5.43;;;21.10;64.60;;;;;;4960844;28;87010;-93
2023/04/22 11:26:37;;;;;;;14.55;5.57;;;21.10;64.50;;;;;;4955568;23;90481;-93
2023/04/22 11:29:03;;;;;;;11.80;5.30;;;21.10;64.50;;;;;;4939785;28;90420;-94
2023/04/22 11:31:28;;;;;;;10.05;4.40;;;21.10;64.80;;;;;;4920186;28;88912;-94
2023/04/22 11:33:58;;;;;;;11.50;5.63;;;21.10;64.50;;;;;;4934785;28;87349;-93
2023/04/22 11:36:27;;;;;;;12.68;5.47;;;21.10;64.60;;;;;;4942627;28;89122;-92
2023/04/22 11:38:55;;;;;;;13.27;5.30;;;21.10;64.30;;;;;;4942286;28;90526;-90
2023/04/22 11:41:22;;;;;;;14.55;5.53;;;21.10;64.50;;;;;;4940913;28;90075;-90
2023/04/22 11:43:48;;;;;;;14.85;4.30;;;21.10;64.30;;;;;;4940319;28;88659;-91
2023/04/22 11:46:14;;;;;;;11.80;5.60;;;21.10;64.40;;;;;;4939851;28;90301;-90
2023/04/22 11:48:39;;;;;;;10.75;4.90;;;21.20;64.30;;;;;;4939493;28;90910;-91
2023/04/22 11:51:11;;;;;;;11.55;5.13;;;21.20;64.20;;;;;;4926644;28;90175;-95
2023/04/22 11:53:49;;;;;;;12.82;5.15;;;21.30;62.10;;;;;;4940532;28;87006;-91
2023/04/22 11:56:15;;;;;;;12.70;6.00;;;21.40;62.80;;;;;;4941241;28;88975;-92
2023/04/22 11:58:41;;;;;;;10.77;4.30;;;21.50;63.10;;;;;;4914864;28;91453;-92
2023/04/22 12:01:14;;;;;;;9.68;4.70;;;21.50;62.90;;;;;;4924462;28;90035;-93
2023/04/22 12:03:40;;;;;;;10.10;4.38;;;21.60;62.90;;;;;;4926848;28;87132;-93
2023/04/22 12:08:43;;;;;;;10.75;4.18;;;21.60;62.40;;;;;;5502898;23;89826;-95
2023/04/22 12:37:25;;;;;;;10.65;4.47;;;21.60;62.80;;;;;;1317375;22;88325;-93
2023/04/22 12:39:51;;;;;;;11.02;4.03;;;21.50;62.80;;;;;;4948475;28;90732;-94
2023/04/22 12:42:17;;;;;;;10.38;4.53;;;21.50;62.90;;;;;;4952641;28;91520;-94
2023/04/22 12:44:43;;;;;;;9.70;4.13;;;21.40;63.00;;;;;;4923403;28;87365;-93
2023/04/22 12:53:15;;;;;;;9.95;4.05;;;21.60;62.30;;;;;;5565165;23;88504;-93
2023/04/22 12:55:41;;;;;;;7.05;4.00;;;21.60;62.10;;;;;;4820906;29;86586;-95
2023/04/22 12:58:07;;;;;;;12.43;4.47;;;21.70;61.90;;;;;;4826990;29;89116;-94
2023/04/22 13:00:33;;;;;;;9.20;3.95;;;21.70;61.50;;;;;;4807198;29;90335;-93
2023/04/22 13:02:59;;;;;;;12.30;5.32;;;21.60;61.70;;;;;;4806149;29;90918;-91
2023/04/22 13:05:25;;;;;;;10.50;4.45;;;21.70;61.40;;;;;;4800870;29;87203;-91
2023/04/22 13:07:52;;;;;;;11.63;5.60;;;21.70;61.50;;;;;;4801835;29;89973;-92
2023/04/22 13:10:18;;;;;;;9.40;4.82;;;21.70;62.00;;;;;;4833340;29;91181;-87
2023/04/22 13:12:44;;;;;;;9.50;4.93;;;21.70;61.80;;;;;;4835193;29;89804;-87
2023/04/22 13:15:10;;;;;;;8.07;4.80;;;21.70;62.20;;;;;;4804644;29;87290;-94
2023/04/22 13:17:40;;;;;;;10.27;5.65;;;21.70;62.00;;;;;;4835446;29;89854;-87
2023/04/22 13:20:08;;;;;;;;;;;21.80;62.30;;;;;;4835391;29;90386;-87